Offenbach, Germany

9:07 AM CET on February 28, 2015 (GMT +0100)
Wiesbaden Army Air Field | Change Station
CLOSE
Current Station
Airport
Location: Wiesbaden,
Elevation: 459 ft
Nearby Weather Stations

Elev 459 ft 50.05 °N, 8.33 °E | Updated 9 minutes ago

Clear
Clear
34 °F
Feels Like 34 °F
N
2
Wind Variable Wind from West

Today
High -- | Low -- °F
--% Chance of Precip.
Yesterday
High -- | Low -- °F
Precip. -- in
7:11 AM 6:04 PM
Waxing Gibbous, 75% visible
Pressure 30.22 in
Visibility 6.2 miles
Clouds Clear
Dew Point 32 °F
Humidity 90%
Rainfall 0.00 in
Snow Depth Not available.
UV 1 out of 12
Pollen Not available.
Air Quality Not available.
Flu Activity Not available.
METAR ETOU 280758Z AUTO 28002KT 9999 CLR 01/00 A3019 RMK AO2 SLP232 T00121002 $

More Conditions Fewer Conditions

Pressure 30.22 in
Visibility 6.2 miles
Clouds Clear
Dew Point 32 °F
Humidity 90%
Rainfall 0.00 in
Snow Depth Not available.
UV 1 out of 12
Pollen Not available.
Air Quality Not available.
Flu Activity Not available.
METAR ETOU 280758Z AUTO 28002KT 9999 CLR 01/00 A3019 RMK AO2 SLP232 T00121002 $

More Conditions Fewer Conditions

10-Day Weather Forecast

Almanac

Astronomy

Feb. 28, 2015 Rise Set
Actual Time
Civil Twilight
Nautical Twilight
Astronomical Twilight
Moon
Length of Visible Light
Length of Day
Tomorrow will be .
, % of the Moon is Illuminated

Today's Extremes

Country Highs Country Lows

Community

WunderPhotos

Upload Photos

1,800,984 photos uploaded!

WunderBlogs® & News

Nearby

Air Quality

  Air Quality AQ Index Pollutant
Not available.

Snow Depth

Station Depth Elevation

Earthquake Activity

City Distance Mag. Time & Date
Minimum magnitude displayed is 2.5.

Coastal Water Temperatures

Place Temperature

Nearby Weather Stations